Time;durP1;ratioP1;P1;durP2;ratioP2;P2;SDS_P1;SDS_P2;PMS_P1;PMS_P2;Temp;Humidity;BMP_temperature;BMP_pressure;BME280_temperature;BME280_humidity;BME280_pressure;Samples;Min_cycle;Max_cycle;Signal;HPM_P1;HPM_P2
2023/09/01 00:01:15;;;;;;;3.20;1.25;;;14.50;99.90;;;;;;4993618;28;20042;-78
2023/09/01 00:04:02;;;;;;;2.92;1.40;;;14.50;99.90;;;;;;4977620;28;20060;-78
2023/09/01 00:06:28;;;;;;;4.75;1.55;;;14.50;99.90;;;;;;5008513;28;20041;-79
2023/09/01 00:08:55;;;;;;;3.42;1.50;;;14.60;99.90;;;;;;4991215;28;20041;-79
2023/09/01 00:11:21;;;;;;;3.55;1.52;;;14.50;99.90;;;;;;5009190;28;20045;-79
2023/09/01 00:13:48;;;;;;;5.95;1.73;;;14.50;99.90;;;;;;4979241;28;20033;-77
2023/09/01 00:16:14;;;;;;;3.17;1.70;;;14.50;99.90;;;;;;5007621;28;20483;-78
2023/09/01 00:18:40;;;;;;;3.83;1.52;;;14.50;99.90;;;;;;4991987;28;20030;-78
2023/09/01 00:21:07;;;;;;;3.20;1.67;;;14.50;99.90;;;;;;4992123;28;20372;-78
2023/09/01 00:23:34;;;;;;;3.33;1.88;;;14.50;99.90;;;;;;4992502;28;20030;-78
2023/09/01 00:26:01;;;;;;;5.05;1.52;;;14.50;99.90;;;;;;4974726;28;20487;-78
2023/09/01 00:28:27;;;;;;;3.80;1.63;;;14.50;99.90;;;;;;4991567;28;20052;-77
2023/09/01 00:30:59;;;;;;;4.75;1.65;;;14.50;99.90;;;;;;4976851;28;20243;-79
2023/09/01 00:33:30;;;;;;;3.42;1.60;;;14.50;99.90;;;;;;4992925;28;20405;-79
2023/09/01 00:35:57;;;;;;;4.10;1.45;;;14.50;99.90;;;;;;5008631;28;20026;-79
2023/09/01 00:38:29;;;;;;;3.20;1.70;;;14.40;99.90;;;;;;4994082;28;20049;-77
2023/09/01 00:40:56;;;;;;;4.35;1.60;;;14.40;99.90;;;;;;4991492;28;20309;-78
2023/09/01 00:43:22;;;;;;;4.63;1.63;;;14.40;99.90;;;;;;4976166;28;20045;-78
2023/09/01 00:45:49;;;;;;;4.88;2.33;;;14.40;99.90;;;;;;4977139;28;20042;-79
2023/09/01 00:48:15;;;;;;;4.00;1.52;;;14.40;99.90;;;;;;4974719;28;20037;-78
2023/09/01 00:50:46;;;;;;;4.13;1.40;;;14.40;99.90;;;;;;4991080;28;20035;-78
2023/09/01 00:53:13;;;;;;;3.00;1.58;;;14.40;99.90;;;;;;4991788;28;20041;-78
2023/09/01 00:55:39;;;;;;;4.35;1.60;;;14.40;99.90;;;;;;4976865;28;20030;-78
2023/09/01 00:58:06;;;;;;;4.53;2.20;;;14.40;99.90;;;;;;4975824;28;20044;-78
2023/09/01 01:00:33;;;;;;;4.55;1.73;;;14.40;99.90;;;;;;5010065;28;20524;-80
2023/09/01 01:03:02;;;;;;;3.25;1.45;;;14.40;99.90;;;;;;4976577;28;20049;-79
2023/09/01 01:05:51;;;;;;;3.88;2.03;;;14.40;99.90;;;;;;4992914;28;20033;-79
2023/09/01 01:08:30;;;;;;;5.78;2.40;;;14.40;99.90;;;;;;5023699;28;20037;-79
2023/09/01 01:11:16;;;;;;;3.22;1.67;;;14.40;99.90;;;;;;5008533;28;20385;-79
2023/09/01 01:13:49;;;;;;;4.65;1.83;;;14.40;99.90;;;;;;4978152;28;20033;-79
2023/09/01 01:16:17;;;;;;;4.63;2.10;;;14.40;99.90;;;;;;4993877;28;20035;-79
2023/09/01 01:18:47;;;;;;;3.97;2.17;;;14.40;99.90;;;;;;4993757;28;20958;-79
2023/09/01 01:21:25;;;;;;;5.07;2.35;;;14.40;99.90;;;;;;5010009;28;20045;-77
2023/09/01 01:23:53;;;;;;;3.40;1.55;;;14.30;99.90;;;;;;5010148;28;20190;-79
2023/09/01 01:26:21;;;;;;;3.90;1.70;;;14.30;99.90;;;;;;4992881;28;20034;-80
2023/09/01 01:28:48;;;;;;;4.40;1.92;;;14.30;99.90;;;;;;5025284;28;20026;-79
2023/09/01 01:31:14;;;;;;;4.10;1.60;;;14.30;99.90;;;;;;4994027;28;20042;-79
2023/09/01 01:34:00;;;;;;;5.03;1.92;;;14.30;99.90;;;;;;4981751;28;20041;-79
2023/09/01 01:37:02;;;;;;;4.10;1.50;;;14.20;99.90;;;;;;5012860;28;20034;-78
2023/09/01 01:39:33;;;;;;;4.78;1.90;;;14.10;99.90;;;;;;5004979;28;20037;-78
2023/09/01 01:42:02;;;;;;;3.55;1.95;;;14.10;99.90;;;;;;4980364;28;20038;-78
2023/09/01 01:44:36;;;;;;;4.97;1.92;;;14.00;99.90;;;;;;4981256;28;20362;-79
2023/09/01 01:47:04;;;;;;;2.58;1.40;;;13.90;99.90;;;;;;4995078;28;20393;-78
2023/09/01 01:49:30;;;;;;;2.78;1.60;;;13.90;99.90;;;;;;5028929;28;20041;-78
2023/09/01 01:51:58;;;;;;;5.22;1.80;;;13.70;99.90;;;;;;5029875;28;20416;-79
2023/09/01 01:54:25;;;;;;;3.97;1.85;;;13.70;99.90;;;;;;4981049;28;20046;-79
2023/09/01 01:56:52;;;;;;;4.38;2.13;;;13.60;99.90;;;;;;4995524;28;20044;-79
2023/09/01 01:59:18;;;;;;;3.47;1.92;;;13.60;99.90;;;;;;4979831;28;20440;-79
2023/09/01 02:01:45;;;;;;;6.18;2.15;;;13.60;99.90;;;;;;4981616;28;20362;-77
2023/09/01 02:04:11;;;;;;;3.88;2.05;;;13.50;99.90;;;;;;4995962;28;20045;-79
2023/09/01 02:06:38;;;;;;;3.05;1.73;;;13.50;99.90;;;;;;4996404;28;20022;-79
2023/09/01 02:09:09;;;;;;;4.38;2.10;;;13.50;99.90;;;;;;4979241;28;20477;-79
2023/09/01 02:11:36;;;;;;;4.82;1.58;;;13.40;99.90;;;;;;4995132;28;20042;-79
2023/09/01 02:14:03;;;;;;;5.15;1.98;;;13.40;99.90;;;;;;4995636;28;20038;-79
2023/09/01 02:16:29;;;;;;;3.67;2.10;;;13.40;99.90;;;;;;4979616;28;20048;-79
2023/09/01 02:18:56;;;;;;;4.95;2.03;;;13.40;99.90;;;;;;5011620;28;20037;-79
2023/09/01 02:21:23;;;;;;;3.50;1.63;;;13.40;99.90;;;;;;5029498;28;20037;-79
2023/09/01 02:23:50;;;;;;;3.97;2.08;;;13.30;99.90;;;;;;5012650;28;20029;-78
2023/09/01 02:26:20;;;;;;;2.80;1.83;;;13.30;99.90;;;;;;4995455;28;20045;-78
2023/09/01 02:28:47;;;;;;;4.40;2.20;;;13.30;99.90;;;;;;5010584;28;20477;-79
2023/09/01 02:31:14;;;;;;;3.83;2.00;;;13.30;99.90;;;;;;4978932;28;20040;-79
2023/09/01 02:33:42;;;;;;;3.45;1.70;;;13.20;99.90;;;;;;5010907;28;20037;-80
2023/09/01 02:36:24;;;;;;;3.92;1.92;;;13.20;99.90;;;;;;4995020;28;20564;-77
2023/09/01 02:38:52;;;;;;;3.35;1.63;;;13.20;99.90;;;;;;5026302;28;20053;-79
2023/09/01 02:41:19;;;;;;;2.28;1.65;;;13.10;99.90;;;;;;5028718;28;20041;-80
2023/09/01 02:43:46;;;;;;;3.72;2.00;;;13.10;99.90;;;;;;5012133;28;20464;-80
2023/09/01 02:46:13;;;;;;;5.43;1.88;;;13.10;99.90;;;;;;4994076;28;20037;-79
2023/09/01 02:48:39;;;;;;;5.93;2.78;;;13.10;99.90;;;;;;4996510;28;20026;-78
2023/09/01 02:51:06;;;;;;;4.60;2.25;;;13.10;99.90;;;;;;5011781;28;20034;-80
2023/09/01 02:53:33;;;;;;;4.90;2.60;;;13.20;99.90;;;;;;4979610;28;20045;-78
2023/09/01 02:56:00;;;;;;;5.93;2.00;;;13.20;99.90;;;;;;4994643;28;20516;-80
2023/09/01 02:58:27;;;;;;;3.88;2.40;;;13.10;99.90;;;;;;4994604;28;20033;-80
2023/09/01 03:00:53;;;;;;;4.63;2.13;;;13.10;99.90;;;;;;4995172;28;20297;-79
2023/09/01 03:03:21;;;;;;;3.08;2.00;;;13.10;99.90;;;;;;4995744;28;20030;-78
2023/09/01 03:05:49;;;;;;;3.88;2.67;;;13.10;99.90;;;;;;5026341;28;20489;-79
2023/09/01 03:08:17;;;;;;;3.90;2.10;;;13.10;99.90;;;;;;4994640;28;20038;-77
2023/09/01 03:10:44;;;;;;;4.93;2.50;;;13.10;99.90;;;;;;5011070;28;20049;-78
2023/09/01 03:13:11;;;;;;;3.50;2.25;;;13.10;99.90;;;;;;5011807;28;20431;-79
2023/09/01 03:15:39;;;;;;;4.13;2.35;;;13.00;99.90;;;;;;5012251;28;20029;-78
2023/09/01 03:18:06;;;;;;;6.15;2.80;;;13.00;99.90;;;;;;4978160;28;20034;-79
2023/09/01 03:20:34;;;;;;;7.20;2.95;;;13.00;99.90;;;;;;4995592;28;20044;-79
2023/09/01 03:23:00;;;;;;;3.78;2.47;;;13.00;99.90;;;;;;5011685;28;20049;-79
2023/09/01 03:25:28;;;;;;;6.53;2.50;;;13.00;99.90;;;;;;5011612;28;20045;-79
2023/09/01 03:27:54;;;;;;;6.38;3.28;;;13.00;99.90;;;;;;4993391;28;20029;-77
2023/09/01 03:30:21;;;;;;;5.05;3.22;;;13.00;99.90;;;;;;4995573;28;20049;-78
2023/09/01 03:32:48;;;;;;;5.45;3.40;;;13.00;99.90;;;;;;5030422;28;20045;-79
2023/09/01 03:35:15;;;;;;;4.75;3.03;;;13.00;99.90;;;;;;4995466;28;20084;-80
2023/09/01 03:37:41;;;;;;;4.60;3.28;;;13.00;99.90;;;;;;4993371;28;20293;-78
2023/09/01 03:40:09;;;;;;;7.85;3.13;;;13.10;99.90;;;;;;4978001;28;20038;-80
2023/09/01 03:42:36;;;;;;;6.68;3.60;;;13.10;99.90;;;;;;5010439;28;20026;-80
2023/09/01 03:45:03;;;;;;;5.53;3.70;;;13.20;99.90;;;;;;4994418;28;20076;-78
2023/09/01 03:47:30;;;;;;;5.10;3.78;;;13.20;99.90;;;;;;4979455;28;20479;-80
2023/09/01 03:49:57;;;;;;;4.97;3.25;;;13.30;99.90;;;;;;4977575;28;20037;-79
2023/09/01 03:52:23;;;;;;;5.28;3.85;;;13.30;99.90;;;;;;4994062;28;20034;-79
2023/09/01 03:54:50;;;;;;;5.80;3.30;;;13.40;99.90;;;;;;4995914;28;20046;-78
2023/09/01 03:57:17;;;;;;;4.85;3.35;;;13.40;99.90;;;;;;4993383;28;20042;-78
2023/09/01 03:59:44;;;;;;;5.55;3.42;;;13.40;99.90;;;;;;4995157;28;20025;-78
2023/09/01 04:02:10;;;;;;;4.63;3.35;;;13.50;99.90;;;;;;5010564;28;20026;-77
2023/09/01 04:04:37;;;;;;;5.78;4.13;;;13.50;99.90;;;;;;5022837;28;21568;-79
2023/09/01 04:07:04;;;;;;;6.55;3.95;;;13.50;99.90;;;;;;4992443;28;20041;-79
2023/09/01 04:09:30;;;;;;;6.13;4.15;;;13.60;99.90;;;;;;5009099;28;20038;-80
2023/09/01 04:11:57;;;;;;;6.40;4.30;;;13.60;99.90;;;;;;4994279;28;20381;-80
2023/09/01 04:14:23;;;;;;;5.80;4.03;;;13.60;99.90;;;;;;4994771;28;20113;-79
2023/09/01 04:16:50;;;;;;;6.95;4.15;;;13.60;99.90;;;;;;5009078;28;20045;-80
2023/09/01 04:19:17;;;;;;;6.28;4.72;;;13.70;99.90;;;;;;4977960;28;20026;-79
2023/09/01 04:21:44;;;;;;;5.53;4.10;;;13.70;99.90;;;;;;4993647;28;20042;-77
2023/09/01 04:24:10;;;;;;;6.72;4.60;;;13.70;99.90;;;;;;5009593;28;20377;-79
2023/09/01 04:26:37;;;;;;;8.23;5.13;;;13.80;99.90;;;;;;4993855;28;20457;-80
2023/09/01 04:29:03;;;;;;;7.80;4.78;;;13.80;99.90;;;;;;5009360;28;20037;-81
2023/09/01 04:31:32;;;;;;;6.57;4.38;;;13.80;99.90;;;;;;5008757;28;20040;-79
2023/09/01 04:34:01;;;;;;;5.70;4.40;;;13.80;99.90;;;;;;4978235;28;20038;-79
2023/09/01 04:36:27;;;;;;;6.22;5.05;;;13.90;99.90;;;;;;4993630;28;20518;-79
2023/09/01 04:38:54;;;;;;;7.35;4.85;;;13.90;99.90;;;;;;4994285;28;20038;-78
2023/09/01 04:41:20;;;;;;;5.32;4.13;;;13.90;99.90;;;;;;5007627;28;20433;-77
2023/09/01 04:43:47;;;;;;;8.13;5.25;;;13.90;99.90;;;;;;5026275;28;20034;-78
2023/09/01 04:46:13;;;;;;;6.50;4.82;;;13.90;99.90;;;;;;4993125;28;20030;-77
2023/09/01 04:48:40;;;;;;;7.78;5.07;;;13.90;99.90;;;;;;4993026;28;20064;-77
2023/09/01 04:51:07;;;;;;;6.70;5.43;;;13.90;99.90;;;;;;4978085;28;20466;-78
2023/09/01 04:53:34;;;;;;;10.30;6.75;;;13.90;99.90;;;;;;4993610;28;20037;-77
2023/09/01 04:56:00;;;;;;;10.38;5.80;;;14.00;99.90;;;;;;5025806;28;20041;-76
2023/09/01 04:58:27;;;;;;;6.40;4.72;;;14.00;99.90;;;;;;4976370;28;20535;-78
2023/09/01 05:00:54;;;;;;;6.97;5.00;;;14.00;99.90;;;;;;4977621;28;20380;-79
2023/09/01 05:03:21;;;;;;;7.78;5.47;;;14.00;99.90;;;;;;4993051;28;20052;-78
2023/09/01 05:05:49;;;;;;;8.02;5.03;;;14.00;99.90;;;;;;5006847;28;20030;-77
2023/09/01 05:08:17;;;;;;;8.88;5.57;;;14.00;99.90;;;;;;4994249;28;20038;-77
2023/09/01 05:10:44;;;;;;;12.00;5.72;;;14.00;99.90;;;;;;4994070;28;20033;-77
2023/09/01 05:13:10;;;;;;;7.35;5.05;;;14.10;99.90;;;;;;4997154;28;20034;-79
2023/09/01 05:15:37;;;;;;;10.05;6.65;;;14.10;99.90;;;;;;5008617;28;20029;-79
2023/09/01 05:18:04;;;;;;;10.63;7.03;;;14.10;99.90;;;;;;4978678;28;20067;-80
2023/09/01 05:20:30;;;;;;;10.80;6.18;;;14.20;99.90;;;;;;4978565;28;20042;-77
2023/09/01 05:22:58;;;;;;;11.18;5.95;;;14.20;99.90;;;;;;4998377;28;20046;-79
2023/09/01 05:25:25;;;;;;;9.95;6.00;;;14.20;99.90;;;;;;4980089;28;20242;-79
2023/09/01 05:27:51;;;;;;;7.28;5.88;;;14.30;99.90;;;;;;4994527;28;20048;-77
2023/09/01 05:30:18;;;;;;;7.90;6.35;;;14.30;99.90;;;;;;4996913;28;20034;-82
2023/09/01 05:32:45;;;;;;;10.65;5.78;;;14.40;99.90;;;;;;4996759;28;20029;-78
2023/09/01 05:35:11;;;;;;;8.98;5.80;;;14.40;99.90;;;;;;4996501;28;20053;-79
2023/09/01 05:37:38;;;;;;;7.03;5.70;;;14.40;99.90;;;;;;4978954;28;20042;-78
2023/09/01 05:40:07;;;;;;;10.57;6.78;;;14.50;99.90;;;;;;4997254;28;20034;-78
2023/09/01 05:42:33;;;;;;;11.60;7.22;;;14.50;99.90;;;;;;4976027;28;20508;-79
2023/09/01 05:45:00;;;;;;;9.23;6.07;;;14.50;99.90;;;;;;4981831;28;20397;-78
2023/09/01 05:47:28;;;;;;;9.38;6.38;;;14.50;99.90;;;;;;5030108;28;20040;-77
2023/09/01 05:49:54;;;;;;;9.98;6.18;;;14.50;99.90;;;;;;4979908;28;20026;-79
2023/09/01 05:52:21;;;;;;;10.35;6.03;;;14.60;99.90;;;;;;4997967;28;20481;-78
2023/09/01 05:54:47;;;;;;;6.82;5.15;;;14.60;99.90;;;;;;5029256;28;20509;-83
2023/09/01 05:57:14;;;;;;;11.23;7.72;;;14.70;99.90;;;;;;4978131;28;20046;-80
2023/09/01 05:59:40;;;;;;;8.55;6.80;;;14.70;99.90;;;;;;4999179;28;20515;-87
2023/09/01 06:02:07;;;;;;;8.57;7.47;;;14.80;99.90;;;;;;5031012;28;20057;-82
2023/09/01 06:04:33;;;;;;;10.52;8.38;;;14.80;99.90;;;;;;4981826;28;20045;-88
2023/09/01 06:06:59;;;;;;;11.15;8.00;;;14.90;99.90;;;;;;4996860;28;20049;-86
2023/09/01 06:09:26;;;;;;;9.80;6.68;;;14.90;99.90;;;;;;4980696;28;20046;-86
2023/09/01 06:11:53;;;;;;;8.50;6.30;;;15.00;99.90;;;;;;4996306;28;20061;-89
2023/09/01 06:14:19;;;;;;;9.60;5.70;;;15.00;99.90;;;;;;4998861;28;20451;-82
2023/09/01 06:16:47;;;;;;;9.52;5.55;;;15.00;99.90;;;;;;4996868;28;20500;-84
2023/09/01 06:19:13;;;;;;;8.85;4.15;;;15.10;99.90;;;;;;5011946;28;20040;-87
2023/09/01 06:21:39;;;;;;;7.75;4.65;;;15.10;99.90;;;;;;4997022;28;20042;-81
2023/09/01 06:24:06;;;;;;;8.75;4.90;;;15.20;99.90;;;;;;5027748;28;20038;-79
2023/09/01 06:26:33;;;;;;;8.02;5.25;;;15.20;99.90;;;;;;4997253;28;20497;-87
2023/09/01 06:28:59;;;;;;;9.98;5.32;;;15.40;99.90;;;;;;4997334;28;20045;-88
2023/09/01 06:31:25;;;;;;;7.38;4.53;;;15.40;99.90;;;;;;4999923;28;20069;-85
2023/09/01 06:33:52;;;;;;;6.70;4.78;;;15.50;99.90;;;;;;4981475;28;20042;-79
2023/09/01 06:36:19;;;;;;;13.07;8.00;;;15.60;99.90;;;;;;5013576;28;20049;-83
2023/09/01 06:38:47;;;;;;;8.93;6.72;;;15.70;99.90;;;;;;4981070;28;20038;-85
2023/09/01 06:41:14;;;;;;;6.40;4.78;;;15.90;99.90;;;;;;4996379;28;20046;-81
2023/09/01 06:43:41;;;;;;;7.82;4.55;;;16.00;99.90;;;;;;5027724;28;20049;-78
2023/09/01 06:46:07;;;;;;;5.63;3.85;;;16.10;99.90;;;;;;5009658;28;20484;-79
2023/09/01 06:48:35;;;;;;;7.28;4.75;;;16.20;99.90;;;;;;4992933;28;20029;-79
2023/09/01 06:51:01;;;;;;;5.60;3.55;;;16.30;99.90;;;;;;5011406;28;20038;-79
2023/09/01 06:53:28;;;;;;;5.40;3.55;;;16.40;99.90;;;;;;4995883;28;20028;-80
2023/09/01 06:55:54;;;;;;;4.82;4.03;;;16.50;99.90;;;;;;5013008;28;20030;-80
2023/09/01 06:58:21;;;;;;;5.60;3.58;;;16.50;99.90;;;;;;5010669;28;20042;-80
2023/09/01 07:00:47;;;;;;;5.60;3.88;;;16.60;99.90;;;;;;5012285;28;20060;-79
2023/09/01 07:03:13;;;;;;;5.00;3.33;;;16.70;99.90;;;;;;5028740;28;20049;-79
2023/09/01 07:05:40;;;;;;;7.13;3.83;;;16.80;99.90;;;;;;5029536;28;20042;-80
2023/09/01 07:08:12;;;;;;;7.05;3.38;;;16.90;99.90;;;;;;4978911;28;20104;-80
2023/09/01 07:10:38;;;;;;;9.60;3.95;;;17.00;99.90;;;;;;4979012;28;20052;-80
2023/09/01 07:13:08;;;;;;;7.15;3.58;;;17.10;99.90;;;;;;5012699;28;20420;-78
2023/09/01 07:15:35;;;;;;;4.93;3.40;;;17.20;99.90;;;;;;5012513;28;20037;-80
2023/09/01 07:18:02;;;;;;;6.25;3.33;;;17.20;99.90;;;;;;4996090;28;20081;-79
2023/09/01 07:20:28;;;;;;;7.40;3.70;;;17.30;99.90;;;;;;5011384;28;20037;-78
2023/09/01 07:22:55;;;;;;;8.30;3.67;;;17.30;99.90;;;;;;4980107;28;20365;-78
2023/09/01 07:25:21;;;;;;;4.18;3.55;;;17.40;99.90;;;;;;4995075;28;20056;-81
2023/09/01 07:27:48;;;;;;;5.13;3.15;;;17.50;99.90;;;;;;4995208;28;20129;-79
2023/09/01 07:30:14;;;;;;;6.00;3.13;;;17.50;99.90;;;;;;5010710;28;20408;-79
2023/09/01 07:32:41;;;;;;;8.18;4.00;;;17.60;99.90;;;;;;4996277;28;20397;-77
2023/09/01 07:35:07;;;;;;;6.68;3.70;;;17.70;99.90;;;;;;5028269;28;20038;-78
2023/09/01 07:37:33;;;;;;;6.20;4.07;;;17.70;99.90;;;;;;5026847;28;20041;-76
2023/09/01 07:40:00;;;;;;;8.82;3.35;;;17.80;99.90;;;;;;4993932;28;20037;-77
2023/09/01 07:42:26;;;;;;;5.93;3.38;;;17.80;99.90;;;;;;4994961;28;20046;-78
2023/09/01 07:44:54;;;;;;;7.22;3.65;;;17.80;99.90;;;;;;4995329;28;20048;-79
2023/09/01 07:47:20;;;;;;;4.60;2.90;;;17.90;99.90;;;;;;5026518;28;20408;-76
2023/09/01 07:49:47;;;;;;;7.15;3.80;;;17.90;99.90;;;;;;4979478;28;20539;-77
2023/09/01 07:52:13;;;;;;;4.68;3.35;;;17.90;99.90;;;;;;4994690;28;20484;-79
2023/09/01 07:54:39;;;;;;;5.78;3.83;;;18.00;99.90;;;;;;4995238;28;20030;-79
2023/09/01 07:57:06;;;;;;;5.90;3.67;;;18.00;99.90;;;;;;4979803;28;20452;-80
2023/09/01 07:59:32;;;;;;;5.55;3.20;;;18.10;99.90;;;;;;4979244;28;20033;-75
2023/09/01 08:01:59;;;;;;;5.63;3.33;;;18.10;99.90;;;;;;5026716;28;20558;-85
2023/09/01 08:04:25;;;;;;;5.45;3.78;;;18.20;99.90;;;;;;4996461;28;20042;-84
2023/09/01 08:06:51;;;;;;;7.45;4.78;;;18.20;99.90;;;;;;4994115;28;20034;-87
2023/09/01 08:09:18;;;;;;;10.48;6.07;;;18.30;99.90;;;;;;4995725;28;20034;-87
2023/09/01 08:11:44;;;;;;;10.93;5.90;;;18.30;99.90;;;;;;4993692;28;20041;-81
2023/09/01 08:14:11;;;;;;;6.88;4.38;;;18.20;99.90;;;;;;4995900;28;20041;-78
2023/09/01 08:16:37;;;;;;;8.23;4.63;;;18.10;99.90;;;;;;4979042;28;20465;-82
2023/09/01 08:19:03;;;;;;;8.43;5.45;;;18.10;99.90;;;;;;5008771;28;20038;-82
2023/09/01 08:21:30;;;;;;;10.23;4.80;;;18.20;99.90;;;;;;4993743;28;20050;-80
2023/09/01 08:23:57;;;;;;;9.00;4.40;;;18.20;99.90;;;;;;4995159;28;20060;-83
2023/09/01 08:26:23;;;;;;;8.18;5.38;;;18.20;99.90;;;;;;4993994;28;20586;-81
2023/09/01 08:28:50;;;;;;;8.43;4.97;;;18.20;99.90;;;;;;4976831;28;20038;-81
2023/09/01 08:31:16;;;;;;;5.82;3.65;;;18.20;99.90;;;;;;4979324;28;20026;-82
2023/09/01 08:33:43;;;;;;;7.00;3.15;;;18.20;99.90;;;;;;5010210;28;20037;-81
2023/09/01 08:36:10;;;;;;;4.93;2.92;;;18.30;99.90;;;;;;4994401;28;20041;-80
2023/09/01 08:38:36;;;;;;;6.95;3.55;;;18.40;99.90;;;;;;5026495;28;20038;-80
2023/09/01 08:41:04;;;;;;;7.90;4.03;;;18.40;99.90;;;;;;4978967;28;20034;-81
2023/09/01 08:43:36;;;;;;;7.38;3.60;;;18.40;99.90;;;;;;4998375;28;20053;-80
2023/09/01 08:46:04;;;;;;;6.93;4.90;;;18.50;99.90;;;;;;5014569;28;20496;-79
2023/09/01 08:48:34;;;;;;;6.07;3.40;;;18.50;99.90;;;;;;5029741;28;20546;-82
2023/09/01 08:51:05;;;;;;;7.25;2.85;;;18.50;99.90;;;;;;4998769;28;20545;-80
2023/09/01 08:53:32;;;;;;;5.18;2.60;;;18.50;99.90;;;;;;5013891;28;20030;-82
2023/09/01 08:55:58;;;;;;;4.55;3.25;;;18.50;99.90;;;;;;4982477;28;20037;-77
2023/09/01 08:58:25;;;;;;;5.15;3.28;;;18.60;99.90;;;;;;4981354;28;20500;-81
2023/09/01 09:00:51;;;;;;;5.88;3.03;;;18.70;99.90;;;;;;5014393;28;20560;-77
2023/09/01 09:03:19;;;;;;;4.10;2.70;;;18.70;99.90;;;;;;4998121;28;20522;-82
2023/09/01 09:05:46;;;;;;;6.53;3.40;;;18.70;99.90;;;;;;5029458;28;21211;-77
2023/09/01 09:08:12;;;;;;;4.40;2.92;;;18.60;99.90;;;;;;4982028;28;20029;-83
2023/09/01 09:10:43;;;;;;;5.28;3.10;;;18.60;99.90;;;;;;4998580;28;20475;-80
2023/09/01 09:13:30;;;;;;;8.90;4.25;;;18.60;99.90;;;;;;4981401;28;20477;-91
2023/09/01 09:16:16;;;;;;;5.72;3.45;;;18.60;99.90;;;;;;4980750;28;20902;-80
2023/09/01 09:18:45;;;;;;;9.43;5.35;;;18.70;99.90;;;;;;4981878;28;20033;-81
2023/09/01 09:21:28;;;;;;;6.18;3.58;;;18.70;99.90;;;;;;4982622;28;20981;-81
2023/09/01 09:23:57;;;;;;;6.50;4.60;;;18.70;99.90;;;;;;5013199;28;20037;-78
2023/09/01 09:26:25;;;;;;;5.55;3.30;;;18.70;99.90;;;;;;5012087;28;20488;-81
2023/09/01 09:28:52;;;;;;;14.20;4.85;;;18.70;99.90;;;;;;4997461;28;20037;-80
2023/09/01 09:31:28;;;;;;;8.82;4.25;;;18.70;99.90;;;;;;4999457;28;20040;-77
2023/09/01 09:33:55;;;;;;;5.57;3.60;;;18.70;99.90;;;;;;4999678;28;20037;-81
2023/09/01 09:36:36;;;;;;;4.93;2.88;;;18.70;99.90;;;;;;5013187;28;20434;-80
2023/09/01 09:39:06;;;;;;;4.65;3.25;;;18.80;99.90;;;;;;4996762;28;20416;-80
2023/09/01 09:41:45;;;;;;;4.15;2.72;;;18.90;99.90;;;;;;5014118;28;20034;-77
2023/09/01 09:44:20;;;;;;;5.63;3.42;;;18.90;99.90;;;;;;4997717;28;20437;-81
2023/09/01 09:46:47;;;;;;;6.85;2.85;;;18.90;99.90;;;;;;4981185;28;20034;-78
2023/09/01 09:49:14;;;;;;;5.55;2.85;;;18.90;99.90;;;;;;5013013;28;20520;-79
2023/09/01 09:51:42;;;;;;;4.35;2.80;;;18.90;99.90;;;;;;5010784;28;20521;-76
2023/09/01 09:54:13;;;;;;;6.82;3.00;;;19.00;99.90;;;;;;5009759;28;20030;-80
2023/09/01 09:56:42;;;;;;;5.28;3.20;;;19.00;99.90;;;;;;4996881;28;20033;-79
2023/09/01 09:59:11;;;;;;;3.83;2.67;;;19.00;99.90;;;;;;4981005;28;20041;-74
2023/09/01 10:01:39;;;;;;;5.63;2.35;;;18.90;99.90;;;;;;4994972;28;20520;-77
2023/09/01 10:04:06;;;;;;;3.22;2.22;;;18.90;99.90;;;;;;4997332;28;20563;-77
2023/09/01 10:06:34;;;;;;;3.55;2.78;;;18.80;99.90;;;;;;5011332;28;20044;-75
2023/09/01 10:09:05;;;;;;;4.47;3.10;;;18.80;99.90;;;;;;5012487;28;20033;-78
2023/09/01 10:11:32;;;;;;;5.65;3.38;;;18.80;99.90;;;;;;4996629;28;20038;-79
2023/09/01 10:14:00;;;;;;;5.13;3.20;;;18.80;99.90;;;;;;5014209;28;20045;-75
2023/09/01 10:16:27;;;;;;;7.38;3.03;;;18.80;99.90;;;;;;5012209;28;20044;-79
2023/09/01 10:18:54;;;;;;;4.50;2.60;;;18.80;99.90;;;;;;5029701;28;20038;-76
2023/09/01 10:21:20;;;;;;;4.95;2.88;;;18.70;99.90;;;;;;4979589;28;20038;-73
2023/09/01 10:23:47;;;;;;;4.35;2.80;;;18.60;99.90;;;;;;4997721;28;20025;-77
2023/09/01 10:26:17;;;;;;;5.78;2.80;;;18.60;99.90;;;;;;4980179;28;20029;-78
2023/09/01 10:29:04;;;;;;;3.63;3.15;;;18.50;99.90;;;;;;5012481;28;20729;-75
2023/09/01 10:31:36;;;;;;;3.70;2.85;;;18.40;99.90;;;;;;4995147;28;20037;-76
2023/09/01 10:34:13;;;;;;;7.20;4.50;;;18.30;99.90;;;;;;4980380;28;20038;-74
2023/09/01 10:36:41;;;;;;;7.45;3.83;;;18.20;99.90;;;;;;5012052;28;20050;-73
2023/09/01 10:39:21;;;;;;;5.28;2.92;;;18.10;99.90;;;;;;5011846;28;20053;-76
2023/09/01 10:41:58;;;;;;;5.13;3.70;;;18.10;99.90;;;;;;4996875;28;20385;-76
2023/09/01 10:44:47;;;;;;;5.70;4.22;;;18.10;99.90;;;;;;4996987;28;20053;-78
2023/09/01 10:47:32;;;;;;;6.85;4.65;;;18.10;99.90;;;;;;4995106;28;20046;-79
2023/09/01 10:50:01;;;;;;;3.35;2.47;;;18.00;99.90;;;;;;4993727;28;20044;-79
2023/09/01 10:52:34;;;;;;;5.85;3.00;;;18.00;99.90;;;;;;5027960;28;20029;-87
2023/09/01 10:55:02;;;;;;;4.07;2.55;;;18.00;99.90;;;;;;4996315;28;20033;-80
2023/09/01 10:57:41;;;;;;;4.28;2.65;;;18.00;99.90;;;;;;4996253;28;20041;-86
2023/09/01 11:00:29;;;;;;;3.88;3.20;;;18.00;99.90;;;;;;4995737;28;20478;-82
2023/09/01 11:03:33;;;;;;;4.75;2.38;;;18.10;99.90;;;;;;4995032;28;20817;-79
2023/09/01 11:06:01;;;;;;;5.25;3.03;;;18.20;99.90;;;;;;5020703;28;20046;-76
2023/09/01 11:08:28;;;;;;;2.80;2.22;;;18.20;99.90;;;;;;4994459;28;20030;-79
2023/09/01 11:11:00;;;;;;;3.17;1.88;;;18.20;99.90;;;;;;5010101;28;20049;-78
2023/09/01 11:13:27;;;;;;;3.42;2.40;;;18.30;99.90;;;;;;5010623;28;20026;-80
2023/09/01 11:15:53;;;;;;;2.88;2.00;;;18.30;99.90;;;;;;5027778;28;23346;-78
2023/09/01 11:18:24;;;;;;;3.05;2.30;;;18.30;99.90;;;;;;4980174;28;20382;-79
2023/09/01 11:20:54;;;;;;;2.95;2.65;;;18.40;99.90;;;;;;5011455;28;20088;-80
2023/09/01 11:23:22;;;;;;;3.15;2.65;;;18.50;99.90;;;;;;5025068;28;20038;-78
2023/09/01 11:25:57;;;;;;;3.45;2.08;;;18.50;99.90;;;;;;4979362;28;20034;-77
2023/09/01 11:28:28;;;;;;;3.40;2.00;;;18.50;99.90;;;;;;4992746;28;20034;-77
2023/09/01 11:31:03;;;;;;;5.00;2.83;;;18.60;99.90;;;;;;5026717;28;20610;-76
2023/09/01 11:33:33;;;;;;;3.83;3.13;;;18.60;99.90;;;;;;4995187;28;20507;-83
2023/09/01 11:36:07;;;;;;;4.60;4.20;;;18.60;99.90;;;;;;5010632;28;20037;-82
2023/09/01 11:38:37;;;;;;;5.82;3.00;;;18.60;99.90;;;;;;5010968;28;20341;-85
2023/09/01 11:41:11;;;;;;;4.57;3.53;;;18.60;99.90;;;;;;5010913;28;20551;-83
2023/09/01 11:43:38;;;;;;;4.35;3.83;;;18.60;99.90;;;;;;4994890;28;20890;-80
2023/09/01 11:46:05;;;;;;;4.97;3.97;;;18.50;99.90;;;;;;5010998;28;20057;-76
2023/09/01 11:48:32;;;;;;;5.28;4.00;;;18.40;99.90;;;;;;5026761;28;20025;-75
2023/09/01 11:50:59;;;;;;;5.40;4.35;;;18.40;99.90;;;;;;4994922;28;20041;-75
2023/09/01 11:53:27;;;;;;;5.35;4.60;;;18.40;99.90;;;;;;4995171;28;20034;-77
2023/09/01 11:55:58;;;;;;;4.53;4.13;;;18.50;99.90;;;;;;5025556;28;20026;-76
2023/09/01 11:58:44;;;;;;;10.10;9.10;;;18.70;99.90;;;;;;5025498;28;20026;-75
2023/09/01 12:01:11;;;;;;;5.15;4.68;;;18.90;99.90;;;;;;4995950;28;20022;-76
2023/09/01 12:03:38;;;;;;;6.97;5.38;;;19.00;99.90;;;;;;5009914;28;20491;-77
2023/09/01 12:06:44;;;;;;;6.20;4.57;;;19.20;99.90;;;;;;5027280;28;20042;-76
2023/09/01 12:09:15;;;;;;;7.85;6.15;;;19.40;99.90;;;;;;4980289;28;20038;-76
2023/09/01 12:12:02;;;;;;;6.05;5.50;;;19.60;99.90;;;;;;4996153;28;20638;-76
2023/09/01 12:14:30;;;;;;;6.70;6.00;;;19.90;99.90;;;;;;4978116;28;20038;-77
2023/09/01 12:16:58;;;;;;;7.55;6.85;;;20.00;99.90;;;;;;4994379;28;20029;-75
2023/09/01 12:19:26;;;;;;;8.30;7.47;;;20.10;99.90;;;;;;5010020;28;20042;-75
2023/09/01 12:21:55;;;;;;;6.57;5.97;;;20.10;99.90;;;;;;4996653;28;20036;-74
2023/09/01 12:24:21;;;;;;;5.13;4.72;;;20.20;99.90;;;;;;5010971;28;20025;-76
2023/09/01 12:26:48;;;;;;;5.15;4.72;;;20.20;99.90;;;;;;5011530;28;20052;-77
2023/09/01 12:29:15;;;;;;;6.03;5.38;;;20.40;99.90;;;;;;4963335;28;20044;-76
2023/09/01 12:31:44;;;;;;;7.22;6.55;;;20.70;99.90;;;;;;4995891;28;20590;-77
2023/09/01 12:34:11;;;;;;;7.10;6.50;;;21.20;99.90;;;;;;5027937;28;20045;-76
2023/09/01 12:36:37;;;;;;;11.35;8.20;;;21.50;99.90;;;;;;4994508;28;21376;-78
2023/09/01 12:39:03;;;;;;;8.45;7.65;;;21.70;99.90;;;;;;4994827;28;20018;-78
2023/09/01 12:41:30;;;;;;;6.07;5.57;;;21.70;99.90;;;;;;4978459;28;20034;-77
2023/09/01 12:43:56;;;;;;;7.55;6.85;;;21.70;99.90;;;;;;4995448;28;20030;-76
2023/09/01 12:46:23;;;;;;;6.25;5.65;;;21.70;99.90;;;;;;5027794;28;20046;-76
2023/09/01 12:48:49;;;;;;;6.85;5.90;;;21.70;99.90;;;;;;4995171;28;20038;-75
2023/09/01 12:51:15;;;;;;;6.13;4.20;;;21.70;99.90;;;;;;4995070;28;20775;-75
2023/09/01 12:53:43;;;;;;;5.68;4.97;;;21.80;99.90;;;;;;4996345;28;20377;-77